Time;durP1;ratioP1;P1;durP2;ratioP2;P2;SDS_P1;SDS_P2;PMS_P1;PMS_P2;Temp;Humidity;BMP_temperature;BMP_pressure;BME280_temperature;BME280_humidity;BME280_pressure;Samples;Min_cycle;Max_cycle;Signal;HPM_P1;HPM_P2
2022/12/16 00:00:36;;;;;;;;;;;1.90;99.90;;;;;;6127392;23;19991;-75
2022/12/16 00:03:02;;;;;;;;;;;1.80;99.90;;;;;;6127324;23;19905;-76
2022/12/16 00:05:28;;;;;;;;;;;1.80;99.90;;;;;;6127592;23;19920;-76
2022/12/16 00:07:54;;;;;;;;;;;1.80;99.90;;;;;;6127664;23;19909;-76
2022/12/16 00:10:20;;;;;;;;;;;1.70;99.90;;;;;;6127593;23;19909;-76
2022/12/16 00:12:46;;;;;;;;;;;1.60;99.90;;;;;;6127257;23;20285;-76
2022/12/16 00:15:11;;;;;;;;;;;1.50;99.90;;;;;;6127321;23;19905;-76
2022/12/16 00:17:38;;;;;;;;;;;1.50;99.90;;;;;;6127426;23;19912;-76
2022/12/16 00:20:04;;;;;;;;;;;1.50;99.90;;;;;;6127647;23;19905;-75
2022/12/16 00:22:30;;;;;;;;;;;1.50;99.90;;;;;;6127175;23;20157;-77
2022/12/16 00:24:55;;;;;;;;;;;1.50;99.90;;;;;;6127180;23;19905;-75
2022/12/16 00:27:21;;;;;;;;;;;1.40;99.90;;;;;;6127065;23;19909;-76
2022/12/16 00:29:46;;;;;;;;;;;1.40;99.90;;;;;;6127670;23;19988;-77
2022/12/16 00:32:12;;;;;;;;;;;1.30;99.90;;;;;;6127829;23;19905;-76
2022/12/16 00:34:37;;;;;;;;;;;1.20;99.90;;;;;;6127058;23;19909;-75
2022/12/16 00:37:03;;;;;;;;;;;1.10;99.90;;;;;;6127072;23;19905;-76
2022/12/16 00:39:28;;;;;;;;;;;1.10;99.90;;;;;;6127255;23;19988;-76
2022/12/16 00:41:54;;;;;;;;;;;1.10;99.90;;;;;;6127013;23;19905;-76
2022/12/16 00:44:20;;;;;;;;;;;1.10;99.90;;;;;;6127275;23;20303;-76
2022/12/16 00:46:45;;;;;;;;;;;1.00;99.90;;;;;;6126880;23;19916;-75
2022/12/16 00:49:11;;;;;;;;;;;1.00;99.90;;;;;;6127019;23;19935;-75
2022/12/16 00:51:36;;;;;;;;;;;1.00;99.90;;;;;;6127431;23;19983;-77
2022/12/16 00:54:02;;;;;;;;;;;1.00;99.90;;;;;;6126974;23;19933;-76
2022/12/16 00:56:28;;;;;;;;;;;1.00;99.90;;;;;;6126495;23;19924;-76
2022/12/16 00:58:53;;;;;;;;;;;0.90;99.90;;;;;;6101000;23;19987;-76
2022/12/16 01:01:19;;;;;;;;;;;0.90;99.90;;;;;;6127527;23;19911;-76
2022/12/16 01:03:44;;;;;;;;;;;0.80;99.90;;;;;;6126890;23;19956;-76
2022/12/16 01:06:11;;;;;;;;;;;0.80;99.90;;;;;;6126953;23;19909;-76
2022/12/16 01:08:37;;;;;;;;;;;0.70;99.90;;;;;;6126791;23;19909;-76
2022/12/16 01:11:02;;;;;;;;;;;0.70;99.90;;;;;;6126873;23;19912;-76
2022/12/16 01:13:28;;;;;;;;;;;0.60;99.90;;;;;;6127126;23;20349;-75
2022/12/16 01:15:54;;;;;;;;;;;0.60;99.90;;;;;;6126979;23;19909;-76
2022/12/16 01:18:19;;;;;;;;;;;0.60;99.90;;;;;;6126862;23;19920;-76
2022/12/16 01:20:45;;;;;;;;;;;0.50;99.90;;;;;;6126811;23;19912;-76
2022/12/16 01:23:10;;;;;;;;;;;0.50;99.90;;;;;;6127350;23;19912;-76
2022/12/16 01:25:36;;;;;;;;;;;0.50;99.90;;;;;;6128840;23;19905;-75
2022/12/16 01:28:01;;;;;;;;;;;0.60;99.90;;;;;;6128783;23;19916;-76
2022/12/16 01:30:27;;;;;;;;;;;0.60;99.90;;;;;;6129032;23;19909;-76
2022/12/16 01:32:53;;;;;;;;;;;0.60;99.90;;;;;;6128804;23;19987;-76
2022/12/16 01:35:18;;;;;;;;;;;0.50;99.90;;;;;;6128814;23;19905;-76
2022/12/16 01:37:44;;;;;;;;;;;0.40;99.90;;;;;;6129004;23;20216;-75
2022/12/16 01:40:17;;;;;;;;;;;0.40;99.90;;;;;;6128701;23;19904;-76
2022/12/16 01:42:43;;;;;;;;;;;0.40;99.90;;;;;;6128773;23;19929;-76
2022/12/16 01:45:24;;;;;;;;;;;0.50;99.90;;;;;;6128643;23;19908;-76
2022/12/16 01:47:51;;;;;;;;;;;0.50;99.90;;;;;;6128522;23;19947;-76
2022/12/16 01:50:18;;;;;;;;;;;0.50;99.90;;;;;;6128922;23;20280;-76
2022/12/16 01:52:46;;;;;;;;;;;0.50;99.90;;;;;;6128889;23;20324;-75
2022/12/16 01:55:17;;;;;;;;;;;0.50;99.90;;;;;;6128341;23;19917;-76
2022/12/16 01:57:48;;;;;;;;;;;0.40;99.90;;;;;;6128857;23;19960;-75
2022/12/16 02:00:14;;;;;;;;;;;0.40;99.90;;;;;;6128745;23;19905;-76
2022/12/16 02:02:42;;;;;;;;;;;0.40;99.90;;;;;;6128496;23;19980;-76
2022/12/16 02:05:20;;;;;;;;;;;0.40;99.90;;;;;;6128469;23;19909;-76
2022/12/16 02:07:58;;;;;;;;;;;0.40;99.90;;;;;;6128905;23;19909;-76
2022/12/16 02:10:32;;;;;;;;;;;0.40;99.90;;;;;;6128789;23;19905;-76
2022/12/16 02:13:17;;;;;;;;;;;0.40;99.90;;;;;;6128561;23;19904;-75
2022/12/16 02:16:03;;;;;;;;;;;0.30;99.90;;;;;;6069196;23;19929;-76
2022/12/16 02:18:38;;;;;;;;;;;0.30;99.90;;;;;;6128704;23;20291;-77
2022/12/16 02:21:04;;;;;;;;;;;0.20;99.90;;;;;;6102390;23;19905;-76
2022/12/16 02:23:49;;;;;;;;;;;0.20;99.90;;;;;;6128285;23;19904;-76
2022/12/16 02:26:34;;;;;;;;;;;0.10;99.90;;;;;;6128555;23;19912;-75
2022/12/16 02:29:26;;;;;;;;;;;0.00;99.90;;;;;;6128379;23;20323;-76
2022/12/16 02:31:58;;;;;;;;;;;0.00;99.90;;;;;;6083446;23;19908;-76
2022/12/16 02:34:29;;;;;;;;;;;-0.10;99.90;;;;;;6128492;23;20032;-76
2022/12/16 02:37:04;;;;;;;;;;;-0.10;99.90;;;;;;6128251;23;19934;-76
2022/12/16 02:39:43;;;;;;;;;;;0.00;99.90;;;;;;6128324;23;19944;-77
2022/12/16 02:42:16;;;;;;;;;;;0.00;99.90;;;;;;6101831;23;19904;-76
2022/12/16 02:44:44;;;;;;;;;;;0.10;99.90;;;;;;6102304;23;20305;-75
2022/12/16 02:47:10;;;;;;;;;;;0.10;99.90;;;;;;6128067;23;19955;-75
2022/12/16 02:49:54;;;;;;;;;;;0.10;99.90;;;;;;6128062;23;19984;-77
2022/12/16 02:52:24;;;;;;;;;;;0.00;99.90;;;;;;6128184;23;19905;-76
2022/12/16 02:54:53;;;;;;;;;;;0.00;99.90;;;;;;6128039;23;19996;-76
2022/12/16 02:57:30;;;;;;;;;;;0.00;99.90;;;;;;6127469;23;20348;-76
2022/12/16 03:00:02;;;;;;;;;;;0.00;99.90;;;;;;6127960;23;19905;-76
2022/12/16 03:02:37;;;;;;;;;;;0.00;99.90;;;;;;6127863;23;19951;-76
2022/12/16 03:05:06;;;;;;;;;;;0.00;99.90;;;;;;6128203;23;19912;-76
2022/12/16 03:07:33;;;;;;;;;;;0.00;99.90;;;;;;6127713;23;19909;-76
2022/12/16 03:09:59;;;;;;;;;;;-0.10;99.90;;;;;;6127860;23;19931;-76
2022/12/16 03:12:25;;;;;;;;;;;-0.20;99.90;;;;;;6127887;23;20351;-76
2022/12/16 03:14:52;;;;;;;;;;;-0.10;99.90;;;;;;6127725;23;19905;-77
2022/12/16 03:17:18;;;;;;;;;;;-0.10;99.90;;;;;;6128005;23;19956;-76
2022/12/16 03:19:48;;;;;;;;;;;0.00;99.90;;;;;;6127790;23;20240;-75
2022/12/16 03:22:17;;;;;;;;;;;0.00;99.90;;;;;;6127766;23;19912;-76
2022/12/16 03:24:42;;;;;;;;;;;0.10;99.90;;;;;;6127752;23;19956;-75
2022/12/16 03:27:20;;;;;;;;;;;0.00;99.90;;;;;;6128319;23;19917;-76
2022/12/16 03:29:55;;;;;;;;;;;0.00;99.90;;;;;;6127680;23;20239;-75
2022/12/16 03:32:27;;;;;;;;;;;-0.10;99.90;;;;;;6127645;23;20342;-76
2022/12/16 03:35:16;;;;;;;;;;;-0.10;99.90;;;;;;6127631;23;19909;-75
2022/12/16 03:37:42;;;;;;;;;;;-0.10;99.90;;;;;;6112009;23;19905;-76
2022/12/16 03:40:08;;;;;;;;;;;-0.20;99.90;;;;;;6127604;23;19909;-75
2022/12/16 03:42:35;;;;;;;;;;;-0.30;99.90;;;;;;6127574;23;19905;-75
2022/12/16 03:45:01;;;;;;;;;;;-0.30;99.90;;;;;;6128021;23;19905;-75
2022/12/16 03:47:27;;;;;;;;;;;-0.30;99.90;;;;;;6127277;23;19916;-75
2022/12/16 03:49:53;;;;;;;;;;;-0.20;99.90;;;;;;6127553;23;20247;-77
2022/12/16 03:52:19;;;;;;;;;;;-0.20;99.90;;;;;;6127258;23;19909;-76
2022/12/16 03:54:44;;;;;;;;;;;-0.20;99.90;;;;;;6127232;23;20324;-75
2022/12/16 03:57:11;;;;;;;;;;;-0.20;99.90;;;;;;6127943;23;19979;-75
2022/12/16 03:59:37;;;;;;;;;;;-0.20;99.90;;;;;;6127574;23;19941;-76
2022/12/16 04:02:02;;;;;;;;;;;-0.30;99.90;;;;;;6127342;23;19905;-76
2022/12/16 04:04:28;;;;;;;;;;;-0.30;99.90;;;;;;6127271;23;19923;-75
2022/12/16 04:09:38;;;;;;;;;;;-0.30;99.90;;;;;;6126979;23;19916;-76
2022/12/16 04:25:52;;;;;;;;;;;-0.20;99.90;;;;;;6082646;23;20348;-77
2022/12/16 04:28:18;;;;;;;;;;;0.00;99.90;;;;;;6127131;23;19913;-75
2022/12/16 04:30:44;;;;;;;;;;;0.00;99.90;;;;;;6127142;23;19913;-76
